Time;durP1;ratioP1;P1;durP2;ratioP2;P2;SDS_P1;SDS_P2;PMS_P1;PMS_P2;Temp;Humidity;BMP_temperature;BMP_pressure;BME280_temperature;BME280_humidity;BME280_pressure;Samples;Min_cycle;Max_cycle;Signal;HPM_P1;HPM_P2
2022/04/25 00:01:02;;;;;;;4.93;2.67;;;;;;;13.34;76.61;93956.88;5019140;28;20224;-78
2022/04/25 00:03:29;;;;;;;13.00;5.22;;;;;;;13.18;77.06;93948.03;5032416;28;20386;-79
2022/04/25 00:05:56;;;;;;;3.05;2.20;;;;;;;13.22;76.91;93959.00;5012669;28;20694;-79
2022/04/25 00:08:23;;;;;;;3.28;1.92;;;;;;;13.22;77.23;93948.91;5025842;28;20370;-80
2022/04/25 00:10:51;;;;;;;4.95;3.22;;;;;;;13.18;76.38;93953.47;5032120;28;20232;-80
2022/04/25 00:13:18;;;;;;;5.50;2.60;;;;;;;13.05;77.30;93960.19;5031894;28;20204;-80
2022/04/25 00:15:45;;;;;;;13.13;4.35;;;;;;;12.96;77.62;93963.13;5032471;28;20207;-80
2022/04/25 00:18:11;;;;;;;4.85;2.55;;;;;;;12.96;77.43;93967.78;5032060;28;20249;-80
2022/04/25 00:20:38;;;;;;;6.45;2.55;;;;;;;13.00;77.40;93963.97;5032409;28;20208;-80
2022/04/25 00:23:05;;;;;;;1.95;1.20;;;;;;;12.95;77.36;93960.78;5031449;28;20268;-79
2022/04/25 00:25:33;;;;;;;4.40;2.53;;;;;;;13.00;77.02;93963.19;5041450;28;20203;-80
2022/04/25 00:28:02;;;;;;;2.72;1.83;;;;;;;13.01;77.47;93965.56;5032148;28;20235;-80
2022/04/25 00:30:29;;;;;;;2.25;1.50;;;;;;;13.08;76.71;93970.34;5032130;28;20231;-80
2022/04/25 00:32:56;;;;;;;4.60;2.13;;;;;;;13.16;75.92;93962.00;5031726;28;20318;-77
2022/04/25 00:35:24;;;;;;;2.63;1.90;;;;;;;13.31;75.08;93973.94;5031924;28;20201;-79
2022/04/25 00:37:54;;;;;;;5.22;2.47;;;;;;;13.27;75.52;93964.13;5031219;28;20226;-80
2022/04/25 00:40:22;;;;;;;2.97;1.98;;;;;;;13.26;75.63;93976.94;5031795;28;20207;-80
2022/04/25 00:42:49;;;;;;;9.32;2.63;;;;;;;13.15;76.22;93976.72;5031241;28;20750;-79
2022/04/25 00:45:18;;;;;;;9.13;2.80;;;;;;;13.16;76.21;93967.44;5031789;28;20192;-79
2022/04/25 00:47:46;;;;;;;13.25;2.65;;;;;;;13.14;76.08;93968.91;5031787;28;20255;-80
2022/04/25 00:50:15;;;;;;;2.20;1.55;;;;;;;13.05;76.60;93976.50;5031899;28;20196;-79
2022/04/25 00:52:42;;;;;;;2.10;1.70;;;;;;;12.93;77.06;93963.06;5031299;28;20209;-80
2022/04/25 00:55:11;;;;;;;1.55;1.45;;;;;;;12.88;76.90;93960.63;5031511;28;20650;-80
2022/04/25 00:57:39;;;;;;;2.10;1.58;;;;;;;12.88;77.57;93964.13;5031491;28;20200;-80
2022/04/25 01:00:08;;;;;;;9.05;3.75;;;;;;;13.03;76.85;93963.25;5031546;28;20224;-79
2022/04/25 01:02:37;;;;;;;4.25;2.08;;;;;;;13.06;76.63;93961.75;5030593;28;20204;-79
2022/04/25 01:05:05;;;;;;;4.88;1.90;;;;;;;13.14;76.33;93958.03;5031330;28;20207;-80
2022/04/25 01:07:34;;;;;;;8.50;4.32;;;;;;;13.03;76.88;93940.72;5031300;28;20255;-79
2022/04/25 01:10:02;;;;;;;1.70;1.60;;;;;;;13.16;76.30;93940.25;5031235;28;20697;-79
2022/04/25 01:12:28;;;;;;;2.80;1.27;;;;;;;13.13;76.05;93934.69;5030380;28;20232;-79
2022/04/25 01:15:00;;;;;;;1.33;1.23;;;;;;;13.11;75.77;93931.56;5031093;28;20215;-79
2022/04/25 01:17:27;;;;;;;4.10;2.20;;;;;;;13.09;75.47;93928.44;5031148;28;20204;-79
2022/04/25 01:19:55;;;;;;;2.65;1.20;;;;;;;13.08;75.87;93933.06;5031016;28;20714;-80
2022/04/25 01:22:28;;;;;;;2.17;1.83;;;;;;;12.90;77.00;93914.84;5030465;28;20208;-80
2022/04/25 01:27:40;;;;;;;2.35;1.33;;;;;;;12.77;77.46;93922.38;5030989;28;20195;-80
2022/04/25 01:30:09;;;;;;;4.15;1.75;;;;;;;12.63;77.90;93901.13;5030954;28;20201;-79
2022/04/25 01:32:37;;;;;;;5.05;2.35;;;;;;;12.70;77.78;93914.88;5030269;28;20306;-80
2022/04/25 01:35:05;;;;;;;3.33;2.10;;;;;;;12.65;77.82;93904.28;5030568;28;20311;-79
2022/04/25 01:37:32;;;;;;;6.78;2.50;;;;;;;12.67;77.55;93902.00;5030480;28;20250;-80
2022/04/25 01:40:00;;;;;;;4.97;1.40;;;;;;;12.72;77.69;93901.69;5030610;28;20215;-78
2022/04/25 01:42:27;;;;;;;3.90;1.90;;;;;;;12.84;77.22;93889.13;5030664;28;20362;-78
2022/04/25 01:44:54;;;;;;;3.75;1.60;;;;;;;12.72;77.68;93882.66;5030493;28;20287;-79
2022/04/25 01:47:21;;;;;;;1.92;1.75;;;;;;;12.60;78.04;93888.25;5030330;28;20663;-78
2022/04/25 01:49:48;;;;;;;7.45;2.45;;;;;;;12.54;78.55;93891.63;5030334;28;20196;-78
2022/04/25 01:52:20;;;;;;;2.13;1.65;;;;;;;12.33;79.09;93886.53;5034645;28;20228;-78
2022/04/25 01:54:48;;;;;;;4.80;2.70;;;;;;;12.36;79.10;93891.25;5022940;28;20188;-79
2022/04/25 01:57:16;;;;;;;2.90;2.22;;;;;;;12.30;79.24;93895.41;5034834;28;20687;-78
2022/04/25 01:59:44;;;;;;;4.75;1.92;;;;;;;12.06;79.94;93905.38;5034995;28;20245;-75
2022/04/25 02:02:12;;;;;;;8.48;2.13;;;;;;;12.19;79.19;93902.53;5034595;28;20201;-78
2022/04/25 02:04:39;;;;;;;5.13;2.22;;;;;;;12.25;78.98;93892.97;5034558;28;20634;-78
2022/04/25 02:07:07;;;;;;;6.10;2.40;;;;;;;12.27;78.96;93888.75;5034415;28;20204;-78
2022/04/25 02:09:34;;;;;;;1.80;1.30;;;;;;;12.15;79.57;93879.97;5034739;28;20295;-79
2022/04/25 02:12:01;;;;;;;7.57;1.60;;;;;;;12.06;79.78;93883.66;5034261;28;20228;-78
2022/04/25 02:14:29;;;;;;;6.47;2.67;;;;;;;12.06;79.71;93878.22;5034090;28;20270;-79
2022/04/25 02:16:58;;;;;;;6.47;2.10;;;;;;;12.17;79.50;93883.09;5034693;28;20196;-79
2022/04/25 02:19:25;;;;;;;12.68;4.40;;;;;;;12.09;79.45;93880.22;5034006;28;20731;-79
2022/04/25 02:21:52;;;;;;;2.30;1.40;;;;;;;12.10;79.49;93879.09;5034355;28;20204;-79
2022/04/25 02:24:19;;;;;;;3.92;2.50;;;;;;;12.16;79.66;93887.75;5041529;28;20191;-79
2022/04/25 02:26:46;;;;;;;7.90;2.15;;;;;;;11.99;79.94;93888.94;5049395;28;20208;-78
2022/04/25 02:29:13;;;;;;;1.98;1.70;;;;;;;11.79;80.86;93900.06;5033700;28;20200;-80
2022/04/25 02:31:41;;;;;;;4.10;1.35;;;;;;;11.70;80.79;93897.53;5033645;28;20262;-79
2022/04/25 02:34:08;;;;;;;1.77;1.67;;;;;;;11.61;81.04;93895.03;5033788;28;20208;-79
2022/04/25 02:36:35;;;;;;;1.95;1.75;;;;;;;11.71;80.96;93888.25;5033838;28;20212;-78
2022/04/25 02:39:03;;;;;;;3.35;2.20;;;;;;;11.81;80.75;93898.59;5034018;28;20296;-78
2022/04/25 02:41:29;;;;;;;2.30;2.10;;;;;;;11.82;80.72;93900.16;5033905;28;20243;-78
2022/04/25 02:43:56;;;;;;;5.25;2.08;;;;;;;11.74;80.42;93888.34;5032985;28;20235;-78
2022/04/25 02:46:23;;;;;;;6.10;1.80;;;;;;;11.71;80.47;93899.09;5032274;28;20208;-79
2022/04/25 02:48:51;;;;;;;6.30;2.00;;;;;;;11.65;80.86;93895.06;5032584;28;20215;-79
2022/04/25 02:51:18;;;;;;;4.00;2.20;;;;;;;11.58;81.18;93884.06;5032231;28;20699;-78
2022/04/25 02:53:46;;;;;;;3.90;1.75;;;;;;;11.65;80.94;93873.38;5032255;28;20602;-78
2022/04/25 02:56:13;;;;;;;10.43;2.70;;;;;;;11.67;81.14;93860.25;5032890;28;20211;-79
2022/04/25 02:58:40;;;;;;;4.13;1.30;;;;;;;11.86;80.02;93845.97;5032685;28;20200;-78
2022/04/25 03:01:08;;;;;;;4.82;1.75;;;;;;;11.77;80.52;93851.59;5031651;28;20258;-79
2022/04/25 03:03:36;;;;;;;8.57;2.72;;;;;;;11.73;80.79;93845.28;5032209;28;20707;-78
2022/04/25 03:06:06;;;;;;;2.53;1.67;;;;;;;11.77;80.77;93854.31;5031975;28;20211;-79
2022/04/25 03:08:34;;;;;;;1.85;1.45;;;;;;;11.64;81.05;93855.53;5032116;28;20212;-79
2022/04/25 03:11:04;;;;;;;3.65;1.88;;;;;;;11.53;81.40;93860.72;5032031;28;20204;-79
2022/04/25 03:13:34;;;;;;;2.25;1.50;;;;;;;11.50;81.38;93861.41;5032472;28;20205;-78
2022/04/25 03:16:01;;;;;;;2.72;1.52;;;;;;;11.44;81.61;93864.75;5032220;28;20239;-79
2022/04/25 03:18:29;;;;;;;9.75;1.30;;;;;;;11.37;81.89;93863.44;5031982;28;20212;-79
2022/04/25 03:20:56;;;;;;;2.72;2.20;;;;;;;11.37;81.81;93874.28;5032402;28;20205;-78
2022/04/25 03:23:25;;;;;;;1.45;1.35;;;;;;;11.41;81.86;93868.94;5032187;28;20204;-78
2022/04/25 03:25:52;;;;;;;1.85;1.58;;;;;;;11.39;81.99;93872.00;5012765;28;20216;-78
2022/04/25 03:28:20;;;;;;;4.68;1.90;;;;;;;11.35;82.11;93865.69;5012303;28;20212;-78
2022/04/25 03:30:47;;;;;;;6.78;1.60;;;;;;;11.32;82.10;93871.06;5023480;28;20228;-78
2022/04/25 03:33:15;;;;;;;2.28;1.80;;;;;;;11.11;82.78;93876.72;5032482;28;20250;-79
2022/04/25 03:35:46;;;;;;;1.98;1.83;;;;;;;11.03;83.19;93877.69;5032183;28;20239;-78
2022/04/25 03:38:14;;;;;;;2.33;1.13;;;;;;;11.00;83.22;93881.09;5031764;28;20208;-79
2022/04/25 03:40:43;;;;;;;5.20;1.80;;;;;;;11.11;82.92;93882.16;5031758;28;20211;-79
2022/04/25 03:43:10;;;;;;;1.77;1.50;;;;;;;11.33;81.95;93883.47;5013407;28;507911;-78
2022/04/25 03:45:37;;;;;;;3.88;2.00;;;;;;;11.40;81.46;93894.50;5031687;28;20208;-78
2022/04/25 03:48:05;;;;;;;4.72;2.25;;;;;;;11.44;81.00;93889.16;5032470;28;20206;-79
2022/04/25 03:50:32;;;;;;;3.58;2.03;;;;;;;11.38;81.00;93892.13;5032654;28;20255;-78
2022/04/25 03:53:05;;;;;;;5.20;2.03;;;;;;;11.31;81.13;93897.38;5019428;28;20785;-78
2022/04/25 03:58:18;;;;;;;6.93;1.75;;;;;;;11.55;80.87;93901.03;5031929;28;20199;-79
2022/04/25 04:00:45;;;;;;;5.10;2.00;;;;;;;11.59;80.52;93899.22;5032059;28;20287;-79
2022/04/25 04:03:14;;;;;;;3.17;1.58;;;;;;;11.78;80.14;93896.56;5032284;28;20205;-79
2022/04/25 04:05:42;;;;;;;3.08;1.70;;;;;;;12.06;79.18;93894.50;5032361;28;20204;-79
2022/04/25 04:08:09;;;;;;;4.57;2.30;;;;;;;12.32;78.33;93902.03;5031639;28;20254;-79
2022/04/25 04:10:36;;;;;;;8.55;2.97;;;;;;;12.38;77.65;93906.06;5031679;28;20250;-79
2022/04/25 04:13:05;;;;;;;2.42;1.60;;;;;;;12.47;77.63;93916.72;5031452;28;20228;-79
2022/04/25 04:15:33;;;;;;;1.60;1.40;;;;;;;12.73;76.61;93916.06;5032150;28;20204;-79
2022/04/25 04:18:00;;;;;;;8.30;2.25;;;;;;;13.27;75.36;93918.66;5031682;28;20200;-79
2022/04/25 04:20:27;;;;;;;10.23;2.15;;;;;;;13.30;73.85;93915.22;5031805;28;20531;-80
2022/04/25 04:22:54;;;;;;;5.40;1.65;;;;;;;13.35;73.49;93917.66;5031889;28;20200;-79
2022/04/25 04:25:22;;;;;;;8.75;3.95;;;;;;;14.03;72.64;93919.53;5041737;28;20207;-79
2022/04/25 04:27:49;;;;;;;7.40;1.75;;;;;;;14.53;71.04;93909.34;5031970;28;20628;-80
2022/04/25 04:30:17;;;;;;;2.03;1.70;;;;;;;15.04;69.23;93908.78;5032112;28;20346;-79
2022/04/25 04:32:46;;;;;;;2.55;1.90;;;;;;;15.31;68.62;93909.50;5031450;28;20761;-78
2022/04/25 04:35:15;;;;;;;2.03;1.60;;;;;;;15.50;66.92;93903.81;5032082;28;20227;-79
2022/04/25 04:37:42;;;;;;;6.07;2.75;;;;;;;16.04;65.90;93914.03;5031930;28;20208;-79
2022/04/25 04:42:56;;;;;;;7.80;2.83;;;;;;;16.61;63.92;93906.97;5031255;28;20318;-79
2022/04/25 04:45:24;;;;;;;6.53;2.55;;;;;;;16.86;62.22;93896.16;5032130;28;20196;-80
2022/04/25 04:47:52;;;;;;;4.63;2.15;;;;;;;17.62;60.85;93895.97;5031600;28;20196;-79
2022/04/25 04:50:19;;;;;;;6.72;2.55;;;;;;;18.08;59.34;93908.91;5031472;28;20204;-79
2022/04/25 04:52:47;;;;;;;5.22;2.10;;;;;;;18.64;57.43;93902.59;5031661;28;20232;-79
2022/04/25 04:55:14;;;;;;;11.38;3.83;;;;;;;18.91;56.79;93900.13;5031645;28;20200;-78
2022/04/25 04:57:42;;;;;;;12.07;4.93;;;;;;;19.35;55.07;93896.00;5031659;28;20204;-79
2022/04/25 05:00:10;;;;;;;8.60;4.38;;;;;;;18.57;55.57;93899.84;5031107;28;20642;-79
2022/04/25 05:02:38;;;;;;;15.23;4.28;;;;;;;19.48;53.62;93905.34;5031014;28;20242;-77
2022/04/25 05:05:07;;;;;;;6.30;3.15;;;;;;;18.14;56.10;93903.84;5024463;28;20290;-80
2022/04/25 05:07:34;;;;;;;10.82;4.18;;;;;;;18.47;56.07;93904.16;5020523;28;20203;-77
2022/04/25 05:10:03;;;;;;;11.93;3.30;;;;;;;19.20;54.34;93905.50;5030403;28;20723;-78
2022/04/25 05:12:30;;;;;;;7.35;3.40;;;;;;;19.50;52.90;93919.50;5030551;28;20228;-80
2022/04/25 05:14:57;;;;;;;8.77;3.88;;;;;;;20.54;51.24;93921.06;5030758;28;20238;-84
2022/04/25 05:17:24;;;;;;;7.97;3.78;;;;;;;21.33;48.67;93914.69;5031241;28;20258;-80
2022/04/25 05:19:51;;;;;;;10.48;3.35;;;;;;;21.19;49.10;93924.69;5030822;28;20211;-77
2022/04/25 05:22:19;;;;;;;12.00;3.63;;;;;;;22.68;45.84;93928.03;5038158;28;20211;-77
2022/04/25 05:24:46;;;;;;;12.15;4.10;;;;;;;23.48;43.45;93923.34;5044678;28;20585;-79
2022/04/25 05:27:13;;;;;;;9.55;3.70;;;;;;;22.09;46.28;93924.28;5031243;28;20350;-79
2022/04/25 05:29:39;;;;;;;8.35;3.60;;;;;;;21.19;47.68;93932.97;5030952;28;20291;-75
2022/04/25 05:32:07;;;;;;;15.10;3.72;;;;;;;22.82;45.25;93940.81;5030515;28;20232;-80
2022/04/25 05:34:34;;;;;;;8.30;3.25;;;;;;;23.60;42.07;93919.16;5030460;28;20200;-79
2022/04/25 05:37:01;;;;;;;9.63;3.30;;;;;;;21.76;45.75;93928.69;5030860;28;20203;-79
2022/04/25 05:39:30;;;;;;;10.23;3.50;;;;;;;22.22;45.33;93919.75;5030373;28;20208;-78
2022/04/25 05:41:57;;;;;;;6.68;3.05;;;;;;;22.72;44.78;93929.91;5030183;28;20204;-77
2022/04/25 05:44:24;;;;;;;12.77;4.30;;;;;;;22.48;44.23;93938.22;5030365;28;20243;-81
2022/04/25 05:46:51;;;;;;;13.63;3.88;;;;;;;22.61;43.68;93925.38;5030734;28;20230;-80
2022/04/25 05:52:05;;;;;;;12.95;3.97;;;;;;;22.58;43.37;93926.22;5030465;28;20773;-85
2022/04/25 05:54:34;;;;;;;10.85;3.63;;;;;;;22.45;43.76;93928.00;5030881;28;20238;-80
2022/04/25 05:57:01;;;;;;;9.57;4.07;;;;;;;22.66;44.56;93937.94;5030764;28;20204;-82
2022/04/25 05:59:31;;;;;;;8.38;3.65;;;;;;;22.59;43.78;93927.78;5031199;28;20220;-81
2022/04/25 06:01:58;;;;;;;14.73;4.20;;;;;;;22.59;43.93;93938.03;5028545;28;20201;-83
2022/04/25 06:04:25;;;;;;;11.55;4.65;;;;;;;24.05;41.32;93922.84;5023425;28;20197;-86
2022/04/25 06:06:53;;;;;;;15.68;3.80;;;;;;;24.45;40.30;93919.97;5029770;28;20200;-83
2022/04/25 06:09:20;;;;;;;11.00;4.55;;;;;;;24.61;40.03;93928.25;5030808;28;20255;-81
2022/04/25 06:11:49;;;;;;;11.35;3.83;;;;;;;25.52;37.89;93929.00;5030269;28;20208;-83
2022/04/25 06:14:17;;;;;;;16.92;3.70;;;;;;;25.15;38.08;93920.09;5029874;28;20228;-78
2022/04/25 06:16:44;;;;;;;8.57;3.70;;;;;;;25.92;37.37;93901.66;5029679;28;20247;-82
2022/04/25 06:19:11;;;;;;;13.05;4.32;;;;;;;26.73;36.12;93895.47;5029511;28;20223;-79
2022/04/25 06:21:38;;;;;;;15.90;3.90;;;;;;;27.00;35.36;93899.75;5029866;28;20294;-80
2022/04/25 06:24:05;;;;;;;12.10;4.13;;;;;;;27.25;34.92;93894.06;5034898;28;20564;-80
2022/04/25 06:26:34;;;;;;;12.40;4.07;;;;;;;26.30;36.83;93893.34;5034366;28;20228;-77
2022/04/25 06:29:02;;;;;;;15.18;4.13;;;;;;;26.72;35.50;93890.34;5029989;28;20291;-81
2022/04/25 06:31:29;;;;;;;11.15;3.72;;;;;;;27.39;34.33;93892.78;5029855;28;20243;-82
2022/04/25 06:33:57;;;;;;;10.05;4.30;;;;;;;27.52;34.29;93891.47;5029972;28;20232;-81
2022/04/25 06:36:23;;;;;;;16.85;3.60;;;;;;;26.20;35.78;93889.66;5030214;28;20439;-76
2022/04/25 06:38:50;;;;;;;11.50;3.85;;;;;;;26.17;36.84;93896.09;5033570;28;20197;-76
2022/04/25 06:41:17;;;;;;;7.35;3.00;;;;;;;26.65;35.62;93890.63;5032944;28;20262;-76
2022/04/25 06:43:44;;;;;;;13.68;4.53;;;;;;;25.44;37.91;93906.22;5034331;28;20235;-77
2022/04/25 06:46:12;;;;;;;8.18;2.65;;;;;;;25.39;37.75;93904.00;5033338;28;20254;-79
2022/04/25 06:48:39;;;;;;;10.00;3.22;;;;;;;25.38;38.07;93913.53;5033576;28;20220;-79
2022/04/25 06:51:06;;;;;;;11.45;3.13;;;;;;;25.62;37.48;93913.28;5033169;28;20263;-82
2022/04/25 06:53:33;;;;;;;8.15;2.80;;;;;;;24.75;38.42;93916.03;5029621;28;20653;-78
2022/04/25 06:56:00;;;;;;;16.58;3.33;;;;;;;25.71;37.60;93905.06;5030931;28;20675;-86
2022/04/25 06:58:27;;;;;;;10.02;3.10;;;;;;;25.79;36.41;93909.19;5029663;28;20216;-76
2022/04/25 07:00:54;;;;;;;8.60;2.53;;;;;;;23.93;39.16;93912.47;5032165;28;20200;-74
2022/04/25 07:03:24;;;;;;;11.20;3.03;;;;;;;25.51;38.56;93905.25;5030271;28;20199;-75
2022/04/25 07:05:52;;;;;;;9.55;3.00;;;;;;;25.85;36.35;93897.09;5029748;28;20192;-78
2022/04/25 07:08:19;;;;;;;8.65;3.22;;;;;;;27.28;34.28;93893.16;5032200;28;20746;-77
2022/04/25 07:10:46;;;;;;;9.25;2.63;;;;;;;27.96;32.93;93899.78;5033563;28;20551;-81
2022/04/25 07:13:13;;;;;;;10.90;2.53;;;;;;;25.20;36.87;93906.94;5045947;28;20230;-75
2022/04/25 07:15:40;;;;;;;16.77;5.05;;;;;;;25.03;37.31;93904.22;5032591;28;20564;-76
2022/04/25 07:18:07;;;;;;;11.40;3.22;;;;;;;25.58;36.66;93904.25;5032633;28;20199;-78
2022/04/25 07:20:35;;;;;;;6.68;3.05;;;;;;;24.75;37.16;93902.94;5033302;28;20262;-81
2022/04/25 07:28:52;;;;;;;6.30;2.90;;;;;;;28.26;32.33;93882.28;5020053;28;20204;-77
2022/04/25 07:31:20;;;;;;;8.23;3.20;;;;;;;26.81;34.29;93885.66;5034079;28;20314;-83
2022/04/25 07:33:47;;;;;;;12.63;3.30;;;;;;;25.99;35.65;93884.78;5044710;28;20603;-82
2022/04/25 07:36:17;;;;;;;13.35;2.80;;;;;;;24.66;38.64;93897.25;5033114;28;20231;-78
2022/04/25 07:38:45;;;;;;;8.50;2.65;;;;;;;24.71;37.21;93898.75;5033194;28;20189;-82
2022/04/25 07:41:13;;;;;;;8.57;2.83;;;;;;;25.60;36.13;93899.03;5032727;28;20698;-84
2022/04/25 07:43:40;;;;;;;9.65;3.25;;;;;;;24.85;36.09;93892.03;5032297;28;20250;-78
2022/04/25 07:46:07;;;;;;;9.73;2.67;;;;;;;25.53;35.48;93890.94;5045940;28;20443;-77
2022/04/25 07:48:34;;;;;;;6.85;2.45;;;;;;;24.53;37.61;93892.88;5031264;28;20262;-79
2022/04/25 07:51:02;;;;;;;10.82;3.00;;;;;;;25.00;36.76;93882.94;5031858;28;20255;-78
2022/04/25 07:53:31;;;;;;;8.07;2.83;;;;;;;26.35;34.63;93873.34;5031422;28;20263;-79
2022/04/25 07:55:58;;;;;;;11.13;2.65;;;;;;;25.04;33.68;93883.59;5031082;28;20201;-74
2022/04/25 07:58:25;;;;;;;8.57;2.58;;;;;;;25.27;34.35;93879.03;5030272;28;20231;-75
2022/04/25 08:00:52;;;;;;;7.35;2.20;;;;;;;24.62;34.11;93888.25;5029067;28;20192;-74
2022/04/25 08:03:19;;;;;;;10.48;2.70;;;;;;;24.60;33.12;93881.63;5030946;28;20203;-77
2022/04/25 08:05:46;;;;;;;14.27;2.83;;;;;;;24.80;32.55;93880.28;5031574;28;20299;-78
2022/04/25 08:08:13;;;;;;;13.23;2.88;;;;;;;25.73;30.83;93866.56;5030666;28;20204;-79
2022/04/25 08:10:41;;;;;;;10.60;2.40;;;;;;;25.66;32.07;93864.03;5031373;28;20201;-81
2022/04/25 08:18:37;;;;;;;6.35;2.60;;;;;;;25.91;28.65;93855.69;5031640;28;20219;-78
2022/04/25 08:21:04;;;;;;;10.32;2.55;;;;;;;25.92;29.13;93862.81;5032288;28;20211;-79
2022/04/25 08:23:31;;;;;;;9.30;2.70;;;;;;;26.15;29.46;93848.56;5032160;28;20211;-82
2022/04/25 08:26:00;;;;;;;9.20;2.42;;;;;;;25.40;29.12;93857.63;5031964;28;20204;-84
2022/04/25 08:28:27;;;;;;;5.70;1.88;;;;;;;25.17;29.69;93858.69;5031099;28;20284;-80
2022/04/25 08:30:54;;;;;;;14.70;2.30;;;;;;;25.18;29.46;93854.69;5031492;28;20207;-79
2022/04/25 08:33:21;;;;;;;12.15;2.38;;;;;;;25.32;29.56;93837.66;5030808;28;20224;-80
2022/04/25 08:35:48;;;;;;;7.65;2.25;;;;;;;25.54;30.31;93850.88;5030752;28;20188;-82
2022/04/25 08:38:14;;;;;;;8.32;2.28;;;;;;;25.52;29.18;93845.00;5031017;28;20199;-85
2022/04/25 08:40:44;;;;;;;7.18;2.15;;;;;;;25.80;29.06;93849.72;5030559;28;20196;-79
2022/04/25 08:43:13;;;;;;;9.90;2.65;;;;;;;24.60;32.24;93849.13;5030656;28;20856;-77
2022/04/25 08:45:41;;;;;;;16.88;2.58;;;;;;;24.14;31.43;93857.84;5031078;28;20197;-76
2022/04/25 08:48:09;;;;;;;13.95;2.00;;;;;;;24.78;31.70;93849.44;5028977;28;20200;-80
2022/04/25 08:50:38;;;;;;;11.38;2.28;;;;;;;25.06;30.19;93849.91;5028232;28;20664;-80
2022/04/25 08:53:07;;;;;;;11.52;2.28;;;;;;;25.32;28.59;93837.66;5031127;28;20224;-78
2022/04/25 08:55:34;;;;;;;9.98;1.63;;;;;;;25.97;28.60;93842.81;5031076;28;20220;-78
2022/04/25 08:58:03;;;;;;;8.90;2.30;;;;;;;25.87;27.28;93837.59;5029815;28;20196;-78
2022/04/25 09:00:32;;;;;;;14.63;2.30;;;;;;;26.28;27.89;93834.69;5044111;28;20233;-79
2022/04/25 09:02:59;;;;;;;10.93;2.10;;;;;;;25.99;29.29;93840.34;5031398;28;20192;-79
2022/04/25 09:05:27;;;;;;;7.80;1.92;;;;;;;26.07;27.75;93838.91;5031557;28;20203;-79
2022/04/25 09:07:54;;;;;;;12.15;2.20;;;;;;;25.69;26.46;93829.84;5030973;28;20532;-79
2022/04/25 09:10:22;;;;;;;7.82;1.92;;;;;;;25.80;27.88;93822.75;5031052;28;20207;-78
2022/04/25 09:12:49;;;;;;;8.77;2.17;;;;;;;25.39;27.51;93837.44;5030845;28;20614;-79
2022/04/25 09:15:18;;;;;;;7.05;1.48;;;;;;;25.05;28.49;93828.94;5044909;28;20201;-81
2022/04/25 09:17:46;;;;;;;6.85;2.00;;;;;;;24.01;31.80;93830.88;5031203;28;20208;-81
2022/04/25 09:20:14;;;;;;;6.43;1.70;;;;;;;24.01;30.05;93824.56;5030919;28;20250;-80
2022/04/25 09:22:41;;;;;;;11.10;2.53;;;;;;;23.94;30.30;93833.00;5031396;28;20215;-78
2022/04/25 09:25:10;;;;;;;11.63;2.33;;;;;;;23.99;31.42;93822.22;5040374;28;20250;-79
2022/04/25 09:27:38;;;;;;;11.20;2.65;;;;;;;24.77;31.69;93820.19;5031344;28;20270;-78
2022/04/25 09:30:17;;;;;;;11.23;2.15;;;;;;;24.07;30.58;93817.25;5030895;28;20207;-79
2022/04/25 09:32:46;;;;;;;12.23;2.17;;;;;;;24.13;30.35;93823.06;5030919;28;20232;-81
2022/04/25 09:35:30;;;;;;;7.78;1.50;;;;;;;24.08;30.34;93819.59;5018209;28;20227;-82
2022/04/25 09:37:58;;;;;;;6.10;1.73;;;;;;;24.44;30.01;93813.19;5030582;28;20227;-75
2022/04/25 09:40:28;;;;;;;13.25;2.38;;;;;;;24.22;30.17;93815.69;5030766;28;20204;-82
2022/04/25 09:43:07;;;;;;;9.15;2.10;;;;;;;23.65;30.66;93819.84;5030682;28;20228;-82
2022/04/25 09:45:35;;;;;;;9.02;1.73;;;;;;;23.44;30.85;93811.25;5031057;28;20196;-82
2022/04/25 09:48:08;;;;;;;9.27;1.50;;;;;;;23.89;30.38;93817.72;5030958;28;20215;-79
2022/04/25 09:50:37;;;;;;;11.80;2.20;;;;;;;24.22;30.21;93812.16;5030837;28;20195;-79
2022/04/25 09:53:06;;;;;;;8.95;1.73;;;;;;;24.43;29.30;93806.09;5017978;28;20200;-76
2022/04/25 09:55:36;;;;;;;7.25;2.20;;;;;;;25.21;30.46;93803.16;5030397;28;20726;-79
2022/04/25 09:58:17;;;;;;;6.90;2.17;;;;;;;24.97;29.24;93797.91;5031191;28;20200;-82
2022/04/25 10:00:44;;;;;;;9.68;1.77;;;;;;;24.91;29.01;93801.59;5031187;28;20227;-74
2022/04/25 10:03:16;;;;;;;8.40;1.83;;;;;;;24.36;29.18;93800.75;5031120;28;20257;-81
2022/04/25 10:05:45;;;;;;;4.07;1.52;;;;;;;24.21;28.52;93799.53;5031144;28;20450;-80
2022/04/25 10:08:13;;;;;;;10.63;1.20;;;;;;;24.10;29.32;93806.13;5031042;28;20208;-81
2022/04/25 10:10:46;;;;;;;6.78;1.45;;;;;;;24.27;27.62;93804.13;5030541;28;20219;-78
2022/04/25 10:13:13;;;;;;;7.85;1.65;;;;;;;25.02;27.18;93794.56;5034397;28;20208;-78
2022/04/25 10:15:41;;;;;;;5.90;1.30;;;;;;;25.20;26.94;93807.13;5034718;28;20227;-77
2022/04/25 10:18:09;;;;;;;11.50;2.63;;;;;;;24.48;27.26;93802.00;5034526;28;20265;-78
2022/04/25 10:20:39;;;;;;;6.38;1.20;;;;;;;24.13;26.48;93787.88;5034223;28;20713;-78
2022/04/25 10:23:08;;;;;;;7.22;1.80;;;;;;;24.10;27.62;93800.59;5033838;28;20212;-81
2022/04/25 10:25:36;;;;;;;2.95;1.40;;;;;;;24.11;28.30;93817.97;5043387;28;20683;-79
2022/04/25 10:28:06;;;;;;;7.95;1.58;;;;;;;24.02;28.85;93815.81;5034504;28;20220;-80
2022/04/25 10:30:34;;;;;;;11.20;1.85;;;;;;;24.31;27.48;93809.59;5034326;28;20258;-77
2022/04/25 10:33:19;;;;;;;6.93;1.20;;;;;;;24.54;26.12;93789.97;5033750;28;20204;-77
2022/04/25 10:35:49;;;;;;;4.85;1.52;;;;;;;24.49;26.79;93809.88;5034246;28;20203;-78
2022/04/25 10:38:51;;;;;;;5.82;1.33;;;;;;;24.06;25.80;93794.34;5034439;28;20208;-80
2022/04/25 10:44:47;;;;;;;5.80;1.35;;;;;;;24.67;26.00;93787.25;5033751;28;20234;-78
2022/04/25 10:47:16;;;;;;;7.05;1.73;;;;;;;24.69;24.88;93784.81;5033658;28;20196;-78
2022/04/25 10:49:45;;;;;;;7.28;1.40;;;;;;;25.33;27.75;93785.75;5033982;28;20228;-79
2022/04/25 10:52:54;;;;;;;8.50;1.60;;;;;;;25.26;24.72;93800.63;5033929;28;20200;-77
2022/04/25 10:55:26;;;;;;;4.97;1.17;;;;;;;25.50;25.23;93799.06;5006595;28;20623;-79
2022/04/25 10:58:16;;;;;;;4.35;1.15;;;;;;;25.05;23.90;93798.44;5046875;28;20212;-80
2022/04/25 11:00:46;;;;;;;5.95;1.30;;;;;;;24.89;24.61;93804.03;5033907;28;20216;-80
2022/04/25 11:03:15;;;;;;;6.47;1.20;;;;;;;25.24;24.68;93794.72;5033608;28;20189;-82
2022/04/25 11:05:44;;;;;;;5.03;1.40;;;;;;;25.80;23.71;93795.00;5033561;28;20256;-80
2022/04/25 11:08:35;;;;;;;5.88;1.60;;;;;;;25.77;22.82;93790.31;5033947;28;20262;-77
2022/04/25 11:11:08;;;;;;;4.97;1.13;;;;;;;26.16;23.10;93800.13;5022548;28;20204;-82
2022/04/25 11:13:36;;;;;;;3.83;1.40;;;;;;;26.32;22.23;93793.69;5033749;28;20227;-82
2022/04/25 11:16:18;;;;;;;6.00;1.55;;;;;;;26.84;22.64;93795.81;5033365;28;20246;-80
2022/04/25 11:18:46;;;;;;;7.18;1.20;;;;;;;26.50;21.35;93790.31;5033404;28;20200;-79
2022/04/25 11:21:14;;;;;;;4.18;1.20;;;;;;;26.55;23.59;93798.03;5033280;28;20664;-77
2022/04/25 11:23:51;;;;;;;7.57;1.95;;;;;;;26.56;22.54;93799.59;5034806;28;20210;-80
2022/04/25 11:26:56;;;;;;;3.80;1.48;;;;;;;26.11;23.00;93803.47;5039407;28;20196;-79
2022/04/25 11:29:23;;;;;;;5.30;1.30;;;;;;;26.11;23.82;93808.25;5032993;28;20587;-78
2022/04/25 11:31:50;;;;;;;8.50;1.70;;;;;;;25.60;23.60;93801.94;5033264;28;20671;-79
2022/04/25 11:34:22;;;;;;;3.13;0.98;;;;;;;25.55;24.11;93802.53;5032841;28;20223;-80
2022/04/25 11:36:50;;;;;;;5.95;1.60;;;;;;;25.74;23.53;93802.31;5020608;28;20223;-78
2022/04/25 11:42:06;;;;;;;8.88;1.10;;;;;;;25.37;22.43;93806.59;5042526;28;20724;-79
2022/04/25 11:44:38;;;;;;;2.55;1.25;;;;;;;25.58;22.07;93804.38;5032808;28;20238;-79
2022/04/25 11:47:06;;;;;;;7.70;1.50;;;;;;;25.36;23.45;93805.06;5033292;28;20199;-81
2022/04/25 11:49:37;;;;;;;9.57;1.27;;;;;;;24.86;22.81;93804.94;5032618;28;20204;-78
2022/04/25 11:52:05;;;;;;;8.95;1.23;;;;;;;24.62;22.32;93796.09;5032280;28;20210;-80
2022/04/25 11:54:34;;;;;;;6.97;1.65;;;;;;;24.87;25.05;93806.50;5019173;28;20244;-78
2022/04/25 11:57:02;;;;;;;5.55;1.38;;;;;;;25.29;24.31;93799.69;5025064;28;20205;-84
2022/04/25 11:59:29;;;;;;;6.25;1.10;;;;;;;25.63;22.24;93795.53;5029709;28;20651;-81
2022/04/25 12:01:56;;;;;;;4.78;1.10;;;;;;;26.13;21.28;93806.56;5031116;28;20203;-75
2022/04/25 12:04:24;;;;;;;8.23;1.50;;;;;;;26.63;21.47;93793.81;5024410;28;20689;-79
2022/04/25 12:06:53;;;;;;;4.13;1.02;;;;;;;26.94;22.98;93801.44;5031775;28;20299;-86